sensor_id;sensor_type;location;lat;lon;timestamp;P1;durP1;ratioP1;P2;durP2;ratioP2
69327;SDS011;56472;52.114;5.492;2023-07-13T00:01:54;9.95;;;2.28;;
69327;SDS011;56472;52.114;5.492;2023-07-13T00:04:22;7.85;;;2.22;;
69327;SDS011;56472;52.114;5.492;2023-07-13T00:06:52;6.45;;;1.90;;
69327;SDS011;56472;52.114;5.492;2023-07-13T00:09:19;10.00;;;2.20;;
69327;SDS011;56472;52.114;5.492;2023-07-13T00:11:52;9.57;;;2.60;;
69327;SDS011;56472;52.114;5.492;2023-07-13T00:14:22;9.20;;;2.05;;
69327;SDS011;56472;52.114;5.492;2023-07-13T00:16:50;8.65;;;2.22;;
69327;SDS011;56472;52.114;5.492;2023-07-13T00:19:17;5.20;;;1.70;;
69327;SDS011;56472;52.114;5.492;2023-07-13T00:21:45;10.90;;;2.65;;
69327;SDS011;56472;52.114;5.492;2023-07-13T00:24:13;6.22;;;2.10;;
69327;SDS011;56472;52.114;5.492;2023-07-13T00:26:42;7.53;;;2.42;;
69327;SDS011;56472;52.114;5.492;2023-07-13T00:29:12;10.40;;;1.83;;
69327;SDS011;56472;52.114;5.492;2023-07-13T00:31:40;8.80;;;2.25;;
69327;SDS011;56472;52.114;5.492;2023-07-13T00:34:07;4.72;;;2.00;;
69327;SDS011;56472;52.114;5.492;2023-07-13T00:36:34;6.30;;;2.00;;
69327;SDS011;56472;52.114;5.492;2023-07-13T00:39:01;8.43;;;1.77;;
69327;SDS011;56472;52.114;5.492;2023-07-13T00:41:30;4.28;;;1.65;;
69327;SDS011;56472;52.114;5.492;2023-07-13T00:43:58;6.22;;;1.92;;
69327;SDS011;56472;52.114;5.492;2023-07-13T00:46:27;6.68;;;1.90;;
69327;SDS011;56472;52.114;5.492;2023-07-13T00:48:59;4.97;;;1.70;;
69327;SDS011;56472;52.114;5.492;2023-07-13T00:51:35;6.82;;;1.85;;
69327;SDS011;56472;52.114;5.492;2023-07-13T00:54:17;6.22;;;1.70;;
69327;SDS011;56472;52.114;5.492;2023-07-13T00:56:48;4.80;;;1.52;;
69327;SDS011;56472;52.114;5.492;2023-07-13T00:59:18;6.63;;;1.90;;
69327;SDS011;56472;52.114;5.492;2023-07-13T01:01:48;10.70;;;1.77;;
69327;SDS011;56472;52.114;5.492;2023-07-13T01:04:15;3.88;;;1.55;;
69327;SDS011;56472;52.114;5.492;2023-07-13T01:06:44;7.45;;;1.80;;
69327;SDS011;56472;52.114;5.492;2023-07-13T01:09:13;6.97;;;1.83;;
69327;SDS011;56472;52.114;5.492;2023-07-13T01:11:41;7.55;;;1.90;;
69327;SDS011;56472;52.114;5.492;2023-07-13T01:14:08;4.00;;;1.35;;
69327;SDS011;56472;52.114;5.492;2023-07-13T01:16:36;6.63;;;1.58;;
69327;SDS011;56472;52.114;5.492;2023-07-13T01:19:07;4.40;;;1.52;;
69327;SDS011;56472;52.114;5.492;2023-07-13T01:21:56;6.90;;;1.63;;
69327;SDS011;56472;52.114;5.492;2023-07-13T01:24:23;5.13;;;1.98;;
69327;SDS011;56472;52.114;5.492;2023-07-13T01:26:50;9.27;;;2.28;;
69327;SDS011;56472;52.114;5.492;2023-07-13T01:29:17;7.53;;;1.73;;
69327;SDS011;56472;52.114;5.492;2023-07-13T01:31:44;6.78;;;1.92;;
69327;SDS011;56472;52.114;5.492;2023-07-13T01:34:12;9.63;;;2.10;;
69327;SDS011;56472;52.114;5.492;2023-07-13T01:36:39;5.88;;;2.17;;
69327;SDS011;56472;52.114;5.492;2023-07-13T01:39:06;8.55;;;2.15;;
69327;SDS011;56472;52.114;5.492;2023-07-13T01:41:34;8.40;;;1.90;;
69327;SDS011;56472;52.114;5.492;2023-07-13T01:44:01;7.63;;;1.50;;
69327;SDS011;56472;52.114;5.492;2023-07-13T01:46:29;3.13;;;1.70;;
69327;SDS011;56472;52.114;5.492;2023-07-13T01:48:56;4.00;;;1.50;;
69327;SDS011;56472;52.114;5.492;2023-07-13T01:51:23;9.25;;;2.05;;
69327;SDS011;56472;52.114;5.492;2023-07-13T01:53:50;8.43;;;1.65;;
69327;SDS011;56472;52.114;5.492;2023-07-13T01:56:18;6.47;;;2.05;;
69327;SDS011;56472;52.114;5.492;2023-07-13T01:58:45;6.53;;;1.55;;
69327;SDS011;56472;52.114;5.492;2023-07-13T02:01:12;7.75;;;1.73;;
69327;SDS011;56472;52.114;5.492;2023-07-13T02:03:40;4.00;;;1.67;;
69327;SDS011;56472;52.114;5.492;2023-07-13T02:06:07;3.85;;;1.90;;
69327;SDS011;56472;52.114;5.492;2023-07-13T02:08:35;8.23;;;2.17;;
69327;SDS011;56472;52.114;5.492;2023-07-13T02:11:02;6.55;;;1.70;;
69327;SDS011;56472;52.114;5.492;2023-07-13T02:13:30;5.95;;;1.95;;
69327;SDS011;56472;52.114;5.492;2023-07-13T02:15:57;5.10;;;1.98;;
69327;SDS011;56472;52.114;5.492;2023-07-13T02:18:24;4.25;;;2.05;;
69327;SDS011;56472;52.114;5.492;2023-07-13T02:20:51;7.38;;;2.10;;
69327;SDS011;56472;52.114;5.492;2023-07-13T02:23:18;5.88;;;1.60;;
69327;SDS011;56472;52.114;5.492;2023-07-13T02:25:45;5.18;;;1.80;;
69327;SDS011;56472;52.114;5.492;2023-07-13T02:28:14;7.63;;;2.25;;
69327;SDS011;56472;52.114;5.492;2023-07-13T02:30:42;5.88;;;1.90;;
69327;SDS011;56472;52.114;5.492;2023-07-13T02:33:09;5.60;;;1.70;;
69327;SDS011;56472;52.114;5.492;2023-07-13T02:35:36;5.78;;;1.80;;
69327;SDS011;56472;52.114;5.492;2023-07-13T02:38:03;6.30;;;1.90;;
69327;SDS011;56472;52.114;5.492;2023-07-13T02:40:30;7.78;;;2.47;;
69327;SDS011;56472;52.114;5.492;2023-07-13T02:42:59;7.95;;;2.10;;
69327;SDS011;56472;52.114;5.492;2023-07-13T02:45:26;4.25;;;1.77;;
69327;SDS011;56472;52.114;5.492;2023-07-13T02:47:54;6.53;;;2.13;;
69327;SDS011;56472;52.114;5.492;2023-07-13T02:50:21;7.68;;;2.17;;
69327;SDS011;56472;52.114;5.492;2023-07-13T02:52:48;5.55;;;2.00;;
69327;SDS011;56472;52.114;5.492;2023-07-13T02:55:15;8.38;;;1.90;;
69327;SDS011;56472;52.114;5.492;2023-07-13T02:57:43;8.50;;;2.35;;
69327;SDS011;56472;52.114;5.492;2023-07-13T03:00:10;6.28;;;1.90;;
69327;SDS011;56472;52.114;5.492;2023-07-13T03:02:37;7.50;;;2.35;;
69327;SDS011;56472;52.114;5.492;2023-07-13T03:05:05;8.13;;;2.10;;
69327;SDS011;56472;52.114;5.492;2023-07-13T03:07:32;8.68;;;2.03;;
69327;SDS011;56472;52.114;5.492;2023-07-13T03:09:59;8.20;;;2.67;;
69327;SDS011;56472;52.114;5.492;2023-07-13T03:12:36;6.85;;;1.92;;
69327;SDS011;56472;52.114;5.492;2023-07-13T03:15:08;9.77;;;2.20;;
69327;SDS011;56472;52.114;5.492;2023-07-13T03:17:38;7.13;;;2.08;;
69327;SDS011;56472;52.114;5.492;2023-07-13T03:20:07;9.75;;;2.30;;
69327;SDS011;56472;52.114;5.492;2023-07-13T03:22:35;9.05;;;2.38;;
69327;SDS011;56472;52.114;5.492;2023-07-13T03:25:02;9.57;;;2.70;;
69327;SDS011;56472;52.114;5.492;2023-07-13T03:27:29;9.13;;;2.13;;
69327;SDS011;56472;52.114;5.492;2023-07-13T03:29:57;5.55;;;2.05;;
69327;SDS011;56472;52.114;5.492;2023-07-13T03:32:24;9.18;;;2.88;;
69327;SDS011;56472;52.114;5.492;2023-07-13T03:34:52;8.25;;;2.00;;
69327;SDS011;56472;52.114;5.492;2023-07-13T03:37:19;10.80;;;3.05;;
69327;SDS011;56472;52.114;5.492;2023-07-13T03:39:47;7.60;;;2.10;;
69327;SDS011;56472;52.114;5.492;2023-07-13T03:42:15;10.57;;;2.83;;
69327;SDS011;56472;52.114;5.492;2023-07-13T03:44:42;6.38;;;2.20;;
69327;SDS011;56472;52.114;5.492;2023-07-13T03:47:18;10.60;;;2.85;;
69327;SDS011;56472;52.114;5.492;2023-07-13T03:49:46;11.05;;;2.20;;
69327;SDS011;56472;52.114;5.492;2023-07-13T03:52:13;7.28;;;2.55;;
69327;SDS011;56472;52.114;5.492;2023-07-13T03:54:41;16.05;;;2.78;;
69327;SDS011;56472;52.114;5.492;2023-07-13T03:57:08;6.72;;;2.38;;
69327;SDS011;56472;52.114;5.492;2023-07-13T03:59:36;11.20;;;2.60;;
69327;SDS011;56472;52.114;5.492;2023-07-13T04:02:03;9.18;;;2.47;;
69327;SDS011;56472;52.114;5.492;2023-07-13T04:04:33;8.23;;;2.75;;
69327;SDS011;56472;52.114;5.492;2023-07-13T04:07:00;8.23;;;2.30;;
69327;SDS011;56472;52.114;5.492;2023-07-13T04:09:27;8.10;;;2.50;;
69327;SDS011;56472;52.114;5.492;2023-07-13T04:11:54;7.22;;;2.25;;
69327;SDS011;56472;52.114;5.492;2023-07-13T04:14:21;9.80;;;2.67;;
69327;SDS011;56472;52.114;5.492;2023-07-13T04:16:48;11.90;;;3.42;;
69327;SDS011;56472;52.114;5.492;2023-07-13T04:19:15;10.23;;;2.78;;
69327;SDS011;56472;52.114;5.492;2023-07-13T04:21:43;8.02;;;2.75;;
69327;SDS011;56472;52.114;5.492;2023-07-13T04:24:10;8.02;;;2.50;;
69327;SDS011;56472;52.114;5.492;2023-07-13T04:26:37;10.77;;;2.97;;
69327;SDS011;56472;52.114;5.492;2023-07-13T04:29:05;7.57;;;2.63;;
69327;SDS011;56472;52.114;5.492;2023-07-13T04:31:33;8.07;;;2.70;;
69327;SDS011;56472;52.114;5.492;2023-07-13T04:34:00;9.02;;;2.60;;
69327;SDS011;56472;52.114;5.492;2023-07-13T04:36:29;10.38;;;2.75;;
69327;SDS011;56472;52.114;5.492;2023-07-13T04:38:56;13.82;;;3.00;;
69327;SDS011;56472;52.114;5.492;2023-07-13T04:41:23;12.63;;;2.38;;
69327;SDS011;56472;52.114;5.492;2023-07-13T04:43:50;12.20;;;2.80;;
69327;SDS011;56472;52.114;5.492;2023-07-13T04:46:19;8.13;;;2.95;;
69327;SDS011;56472;52.114;5.492;2023-07-13T04:48:48;14.15;;;3.20;;
69327;SDS011;56472;52.114;5.492;2023-07-13T04:51:17;8.30;;;2.60;;
69327;SDS011;56472;52.114;5.492;2023-07-13T04:53:44;8.25;;;2.97;;
69327;SDS011;56472;52.114;5.492;2023-07-13T04:56:11;9.88;;;3.20;;
69327;SDS011;56472;52.114;5.492;2023-07-13T04:58:39;13.20;;;3.20;;
69327;SDS011;56472;52.114;5.492;2023-07-13T05:01:06;12.40;;;3.28;;
69327;SDS011;56472;52.114;5.492;2023-07-13T05:03:35;10.95;;;2.85;;
69327;SDS011;56472;52.114;5.492;2023-07-13T05:06:04;15.52;;;3.88;;
69327;SDS011;56472;52.114;5.492;2023-07-13T05:08:32;16.25;;;3.92;;
69327;SDS011;56472;52.114;5.492;2023-07-13T05:11:00;14.52;;;3.60;;
69327;SDS011;56472;52.114;5.492;2023-07-13T05:13:28;12.63;;;3.35;;
69327;SDS011;56472;52.114;5.492;2023-07-13T05:16:00;13.20;;;4.13;;
69327;SDS011;56472;52.114;5.492;2023-07-13T05:18:29;14.75;;;2.97;;
69327;SDS011;56472;52.114;5.492;2023-07-13T05:21:01;14.15;;;3.40;;
69327;SDS011;56472;52.114;5.492;2023-07-13T05:23:30;13.82;;;3.47;;
69327;SDS011;56472;52.114;5.492;2023-07-13T05:25:58;11.27;;;3.13;;
69327;SDS011;56472;52.114;5.492;2023-07-13T05:28:26;15.35;;;3.58;;
69327;SDS011;56472;52.114;5.492;2023-07-13T05:30:54;7.22;;;2.97;;
69327;SDS011;56472;52.114;5.492;2023-07-13T05:33:22;14.65;;;3.72;;
69327;SDS011;56472;52.114;5.492;2023-07-13T05:35:50;16.00;;;3.92;;
69327;SDS011;56472;52.114;5.492;2023-07-13T05:38:17;12.55;;;4.10;;
69327;SDS011;56472;52.114;5.492;2023-07-13T05:40:45;10.75;;;3.30;;
69327;SDS011;56472;52.114;5.492;2023-07-13T05:43:12;13.27;;;3.20;;
69327;SDS011;56472;52.114;5.492;2023-07-13T05:45:40;10.40;;;3.25;;
69327;SDS011;56472;52.114;5.492;2023-07-13T05:48:07;15.45;;;4.18;;
69327;SDS011;56472;52.114;5.492;2023-07-13T05:50:34;20.52;;;4.22;;
69327;SDS011;56472;52.114;5.492;2023-07-13T05:53:01;20.30;;;4.72;;
69327;SDS011;56472;52.114;5.492;2023-07-13T05:55:28;12.93;;;3.92;;
69327;SDS011;56472;52.114;5.492;2023-07-13T05:57:56;17.40;;;4.78;;
69327;SDS011;56472;52.114;5.492;2023-07-13T06:00:24;14.48;;;4.72;;
69327;SDS011;56472;52.114;5.492;2023-07-13T06:02:52;19.38;;;5.55;;
69327;SDS011;56472;52.114;5.492;2023-07-13T06:05:19;15.05;;;4.70;;
69327;SDS011;56472;52.114;5.492;2023-07-13T06:07:46;15.50;;;4.78;;
69327;SDS011;56472;52.114;5.492;2023-07-13T06:10:13;16.08;;;5.60;;
69327;SDS011;56472;52.114;5.492;2023-07-13T06:12:40;16.92;;;5.72;;
69327;SDS011;56472;52.114;5.492;2023-07-13T06:15:07;17.88;;;5.40;;
69327;SDS011;56472;52.114;5.492;2023-07-13T06:17:35;19.38;;;4.97;;
69327;SDS011;56472;52.114;5.492;2023-07-13T06:20:02;17.52;;;5.25;;
69327;SDS011;56472;52.114;5.492;2023-07-13T06:22:29;16.30;;;4.38;;
69327;SDS011;56472;52.114;5.492;2023-07-13T06:24:56;13.65;;;4.82;;
69327;SDS011;56472;52.114;5.492;2023-07-13T06:27:23;14.35;;;4.90;;
69327;SDS011;56472;52.114;5.492;2023-07-13T06:29:50;18.02;;;4.80;;
69327;SDS011;56472;52.114;5.492;2023-07-13T06:32:17;13.00;;;5.03;;
69327;SDS011;56472;52.114;5.492;2023-07-13T06:34:44;15.05;;;5.38;;
69327;SDS011;56472;52.114;5.492;2023-07-13T06:37:11;23.77;;;7.18;;
69327;SDS011;56472;52.114;5.492;2023-07-13T06:39:38;13.57;;;4.70;;
69327;SDS011;56472;52.114;5.492;2023-07-13T06:42:05;17.98;;;6.10;;
69327;SDS011;56472;52.114;5.492;2023-07-13T06:44:33;14.43;;;5.65;;
69327;SDS011;56472;52.114;5.492;2023-07-13T06:47:00;13.63;;;5.43;;
69327;SDS011;56472;52.114;5.492;2023-07-13T06:49:27;17.65;;;6.05;;
69327;SDS011;56472;52.114;5.492;2023-07-13T06:51:54;14.40;;;5.85;;
69327;SDS011;56472;52.114;5.492;2023-07-13T06:54:21;19.80;;;6.80;;
69327;SDS011;56472;52.114;5.492;2023-07-13T06:56:48;15.00;;;6.70;;
69327;SDS011;56472;52.114;5.492;2023-07-13T06:59:15;14.48;;;6.75;;
69327;SDS011;56472;52.114;5.492;2023-07-13T07:01:42;17.92;;;6.70;;
69327;SDS011;56472;52.114;5.492;2023-07-13T07:04:09;17.88;;;6.22;;
69327;SDS011;56472;52.114;5.492;2023-07-13T07:06:36;18.40;;;6.30;;
69327;SDS011;56472;52.114;5.492;2023-07-13T07:09:03;22.08;;;6.68;;
69327;SDS011;56472;52.114;5.492;2023-07-13T07:11:30;19.50;;;6.53;;
69327;SDS011;56472;52.114;5.492;2023-07-13T07:13:57;22.83;;;6.60;;
69327;SDS011;56472;52.114;5.492;2023-07-13T07:16:25;18.20;;;6.93;;
69327;SDS011;56472;52.114;5.492;2023-07-13T07:18:52;16.80;;;6.63;;
69327;SDS011;56472;52.114;5.492;2023-07-13T07:21:19;18.13;;;7.10;;
69327;SDS011;56472;52.114;5.492;2023-07-13T07:23:49;19.95;;;7.50;;
69327;SDS011;56472;52.114;5.492;2023-07-13T07:26:16;21.10;;;7.63;;
69327;SDS011;56472;52.114;5.492;2023-07-13T07:28:43;25.60;;;7.70;;
69327;SDS011;56472;52.114;5.492;2023-07-13T07:31:17;21.27;;;6.43;;
69327;SDS011;56472;52.114;5.492;2023-07-13T07:33:47;25.45;;;7.95;;
69327;SDS011;56472;52.114;5.492;2023-07-13T07:36:16;20.83;;;7.20;;
69327;SDS011;56472;52.114;5.492;2023-07-13T07:38:46;17.63;;;7.20;;
69327;SDS011;56472;52.114;5.492;2023-07-13T07:41:13;21.27;;;7.07;;
69327;SDS011;56472;52.114;5.492;2023-07-13T07:43:43;21.48;;;6.93;;
69327;SDS011;56472;52.114;5.492;2023-07-13T07:46:10;13.43;;;5.88;;
69327;SDS011;56472;52.114;5.492;2023-07-13T07:48:38;18.90;;;6.30;;
69327;SDS011;56472;52.114;5.492;2023-07-13T07:51:05;14.77;;;5.55;;
69327;SDS011;56472;52.114;5.492;2023-07-13T07:53:32;14.15;;;5.50;;
69327;SDS011;56472;52.114;5.492;2023-07-13T07:56:00;13.20;;;5.47;;
69327;SDS011;56472;52.114;5.492;2023-07-13T07:58:47;14.32;;;5.00;;
69327;SDS011;56472;52.114;5.492;2023-07-13T08:01:16;12.38;;;5.25;;
69327;SDS011;56472;52.114;5.492;2023-07-13T08:03:47;8.30;;;4.60;;
69327;SDS011;56472;52.114;5.492;2023-07-13T08:06:17;9.85;;;4.88;;
69327;SDS011;56472;52.114;5.492;2023-07-13T08:08:49;10.15;;;4.30;;
69327;SDS011;56472;52.114;5.492;2023-07-13T08:11:16;8.27;;;4.50;;
69327;SDS011;56472;52.114;5.492;2023-07-13T08:13:46;12.30;;;4.38;;
69327;SDS011;56472;52.114;5.492;2023-07-13T08:16:15;11.93;;;3.90;;
69327;SDS011;56472;52.114;5.492;2023-07-13T08:18:42;7.30;;;3.90;;
69327;SDS011;56472;52.114;5.492;2023-07-13T08:21:09;14.68;;;4.38;;
69327;SDS011;56472;52.114;5.492;2023-07-13T08:23:37;9.50;;;3.67;;
69327;SDS011;56472;52.114;5.492;2023-07-13T08:26:05;7.93;;;3.60;;
69327;SDS011;56472;52.114;5.492;2023-07-13T08:28:33;7.47;;;3.58;;
69327;SDS011;56472;52.114;5.492;2023-07-13T08:31:03;7.85;;;3.20;;
69327;SDS011;56472;52.114;5.492;2023-07-13T08:33:33;14.85;;;3.80;;
69327;SDS011;56472;52.114;5.492;2023-07-13T08:36:02;6.13;;;3.35;;
69327;SDS011;56472;52.114;5.492;2023-07-13T08:38:29;10.38;;;3.70;;
69327;SDS011;56472;52.114;5.492;2023-07-13T08:40:56;7.43;;;3.72;;
69327;SDS011;56472;52.114;5.492;2023-07-13T08:43:28;4.88;;;3.00;;
69327;SDS011;56472;52.114;5.492;2023-07-13T08:46:13;6.45;;;3.60;;
69327;SDS011;56472;52.114;5.492;2023-07-13T08:49:28;7.90;;;3.10;;
69327;SDS011;56472;52.114;5.492;2023-07-13T08:51:51;7.25;;;3.40;;
69327;SDS011;56472;52.114;5.492;2023-07-13T08:54:34;7.15;;;3.22;;
69327;SDS011;56472;52.114;5.492;2023-07-13T08:57:14;5.72;;;3.17;;
69327;SDS011;56472;52.114;5.492;2023-07-13T08:59:45;4.13;;;2.67;;
69327;SDS011;56472;52.114;5.492;2023-07-13T09:05:10;6.75;;;2.83;;
69327;SDS011;56472;52.114;5.492;2023-07-13T09:07:55;7.70;;;3.00;;
69327;SDS011;56472;52.114;5.492;2023-07-13T09:10:37;4.15;;;2.50;;
69327;SDS011;56472;52.114;5.492;2023-07-13T09:13:18;5.00;;;2.67;;
69327;SDS011;56472;52.114;5.492;2023-07-13T09:15:53;4.93;;;2.33;;
69327;SDS011;56472;52.114;5.492;2023-07-13T09:18:31;4.90;;;2.28;;
69327;SDS011;56472;52.114;5.492;2023-07-13T09:23:34;6.88;;;2.90;;
69327;SDS011;56472;52.114;5.492;2023-07-13T09:28:42;4.70;;;2.30;;
69327;SDS011;56472;52.114;5.492;2023-07-13T09:31:15;4.22;;;2.20;;
69327;SDS011;56472;52.114;5.492;2023-07-13T09:33:48;4.22;;;2.05;;
69327;SDS011;56472;52.114;5.492;2023-07-13T09:36:21;4.85;;;2.38;;
69327;SDS011;56472;52.114;5.492;2023-07-13T09:38:53;3.67;;;2.30;;
69327;SDS011;56472;52.114;5.492;2023-07-13T09:44:33;4.22;;;2.10;;
69327;SDS011;56472;52.114;5.492;2023-07-13T09:47:02;4.10;;;2.38;;
69327;SDS011;56472;52.114;5.492;2023-07-13T09:49:33;6.07;;;2.47;;
69327;SDS011;56472;52.114;5.492;2023-07-13T09:52:07;6.85;;;2.10;;
69327;SDS011;56472;52.114;5.492;2023-07-13T09:54:44;5.38;;;2.40;;
69327;SDS011;56472;52.114;5.492;2023-07-13T09:57:16;3.58;;;2.05;;
69327;SDS011;56472;52.114;5.492;2023-07-13T09:59:49;4.88;;;2.25;;
69327;SDS011;56472;52.114;5.492;2023-07-13T10:02:30;2.70;;;1.80;;
69327;SDS011;56472;52.114;5.492;2023-07-13T10:05:04;5.07;;;2.00;;
69327;SDS011;56472;52.114;5.492;2023-07-13T10:07:38;5.68;;;2.20;;
69327;SDS011;56472;52.114;5.492;2023-07-13T10:10:14;4.90;;;1.83;;
69327;SDS011;56472;52.114;5.492;2023-07-13T10:12:46;6.90;;;2.22;;
69327;SDS011;56472;52.114;5.492;2023-07-13T10:15:15;5.15;;;2.03;;
69327;SDS011;56472;52.114;5.492;2023-07-13T10:17:51;4.32;;;2.30;;
69327;SDS011;56472;52.114;5.492;2023-07-13T10:20:22;5.25;;;2.38;;
69327;SDS011;56472;52.114;5.492;2023-07-13T10:22:59;4.78;;;2.08;;
69327;SDS011;56472;52.114;5.492;2023-07-13T10:25:34;6.00;;;2.22;;
69327;SDS011;56472;52.114;5.492;2023-07-13T10:28:25;6.45;;;2.35;;
69327;SDS011;56472;52.114;5.492;2023-07-13T10:30:56;4.25;;;2.00;;
69327;SDS011;56472;52.114;5.492;2023-07-13T10:33:26;5.03;;;1.88;;
69327;SDS011;56472;52.114;5.492;2023-07-13T10:36:40;5.20;;;2.30;;
69327;SDS011;56472;52.114;5.492;2023-07-13T10:38:47;4.85;;;2.10;;
69327;SDS011;56472;52.114;5.492;2023-07-13T10:41:18;5.65;;;2.80;;
69327;SDS011;56472;52.114;5.492;2023-07-13T10:43:50;3.03;;;2.17;;
69327;SDS011;56472;52.114;5.492;2023-07-13T10:46:22;3.47;;;2.20;;
69327;SDS011;56472;52.114;5.492;2023-07-13T10:49:01;5.85;;;2.40;;
69327;SDS011;56472;52.114;5.492;2023-07-13T10:51:31;2.80;;;1.85;;
69327;SDS011;56472;52.114;5.492;2023-07-13T10:56:45;2.35;;;2.13;;
69327;SDS011;56472;52.114;5.492;2023-07-13T10:59:18;3.72;;;2.17;;
69327;SDS011;56472;52.114;5.492;2023-07-13T11:02:00;2.33;;;2.00;;
69327;SDS011;56472;52.114;5.492;2023-07-13T11:04:40;2.63;;;2.10;;
69327;SDS011;56472;52.114;5.492;2023-07-13T11:07:32;4.43;;;2.00;;
69327;SDS011;56472;52.114;5.492;2023-07-13T11:10:45;3.33;;;1.35;;
69327;SDS011;56472;52.114;5.492;2023-07-13T11:13:59;3.95;;;1.92;;
69327;SDS011;56472;52.114;5.492;2023-07-13T11:16:32;5.50;;;1.85;;
69327;SDS011;56472;52.114;5.492;2023-07-13T11:25:02;3.80;;;1.58;;
69327;SDS011;56472;52.114;5.492;2023-07-13T11:33:22;2.22;;;1.65;;
69327;SDS011;56472;52.114;5.492;2023-07-13T11:36:05;2.92;;;2.00;;
69327;SDS011;56472;52.114;5.492;2023-07-13T11:38:40;2.42;;;2.13;;
69327;SDS011;56472;52.114;5.492;2023-07-13T11:43:43;1.65;;;1.38;;
69327;SDS011;56472;52.114;5.492;2023-07-13T11:46:14;1.88;;;1.70;;
69327;SDS011;56472;52.114;5.492;2023-07-13T11:48:46;1.92;;;1.70;;
69327;SDS011;56472;52.114;5.492;2023-07-13T11:51:28;2.17;;;1.80;;
69327;SDS011;56472;52.114;5.492;2023-07-13T11:53:59;2.45;;;1.80;;
69327;SDS011;56472;52.114;5.492;2023-07-13T11:56:31;3.25;;;1.83;;
69327;SDS011;56472;52.114;5.492;2023-07-13T11:59:04;4.78;;;2.38;;
69327;SDS011;56472;52.114;5.492;2023-07-13T12:01:33;2.97;;;2.00;;
69327;SDS011;56472;52.114;5.492;2023-07-13T12:04:08;5.53;;;1.98;;
69327;SDS011;56472;52.114;5.492;2023-07-13T12:06:58;3.33;;;2.17;;
69327;SDS011;56472;52.114;5.492;2023-07-13T12:09:35;7.32;;;2.55;;
69327;SDS011;56472;52.114;5.492;2023-07-13T12:12:03;3.90;;;2.33;;
69327;SDS011;56472;52.114;5.492;2023-07-13T12:14:36;5.03;;;2.53;;
69327;SDS011;56472;52.114;5.492;2023-07-13T12:17:08;6.25;;;2.47;;
69327;SDS011;56472;52.114;5.492;2023-07-13T12:19:40;3.92;;;2.30;;
69327;SDS011;56472;52.114;5.492;2023-07-13T12:22:08;4.47;;;2.15;;
69327;SDS011;56472;52.114;5.492;2023-07-13T12:24:38;4.15;;;2.63;;
69327;SDS011;56472;52.114;5.492;2023-07-13T12:29:57;3.45;;;2.20;;
69327;SDS011;56472;52.114;5.492;2023-07-13T12:32:27;2.33;;;2.05;;
69327;SDS011;56472;52.114;5.492;2023-07-13T12:35:04;2.88;;;2.20;;
69327;SDS011;56472;52.114;5.492;2023-07-13T12:37:42;9.25;;;2.50;;
69327;SDS011;56472;52.114;5.492;2023-07-13T12:40:15;4.60;;;2.28;;
69327;SDS011;56472;52.114;5.492;2023-07-13T12:42:49;4.72;;;2.80;;
69327;SDS011;56472;52.114;5.492;2023-07-13T12:45:21;6.53;;;2.30;;
69327;SDS011;56472;52.114;5.492;2023-07-13T12:47:55;4.57;;;2.50;;
69327;SDS011;56472;52.114;5.492;2023-07-13T12:50:37;4.15;;;2.30;;
69327;SDS011;56472;52.114;5.492;2023-07-13T12:53:15;4.75;;;2.30;;
69327;SDS011;56472;52.114;5.492;2023-07-13T12:55:50;3.05;;;2.05;;
69327;SDS011;56472;52.114;5.492;2023-07-13T12:58:28;7.90;;;2.78;;
69327;SDS011;56472;52.114;5.492;2023-07-13T13:00:56;3.60;;;2.10;;
69327;SDS011;56472;52.114;5.492;2023-07-13T13:06:01;4.00;;;2.65;;
69327;SDS011;56472;52.114;5.492;2023-07-13T13:08:35;2.70;;;1.87;;
69327;SDS011;56472;52.114;5.492;2023-07-13T13:11:03;3.08;;;2.30;;
69327;SDS011;56472;52.114;5.492;2023-07-13T13:13:31;6.10;;;3.45;;
69327;SDS011;56472;52.114;5.492;2023-07-13T13:16:01;5.70;;;2.45;;
69327;SDS011;56472;52.114;5.492;2023-07-13T13:18:32;5.63;;;2.97;;
69327;SDS011;56472;52.114;5.492;2023-07-13T13:20:59;2.45;;;2.03;;
69327;SDS011;56472;52.114;5.492;2023-07-13T13:23:27;4.00;;;2.00;;
69327;SDS011;56472;52.114;5.492;2023-07-13T13:25:54;4.57;;;2.42;;
69327;SDS011;56472;52.114;5.492;2023-07-13T13:28:21;4.82;;;2.20;;
69327;SDS011;56472;52.114;5.492;2023-07-13T13:30:49;4.60;;;2.85;;
69327;SDS011;56472;52.114;5.492;2023-07-13T13:33:18;5.22;;;2.28;;
69327;SDS011;56472;52.114;5.492;2023-07-13T13:35:46;4.88;;;2.92;;
69327;SDS011;56472;52.114;5.492;2023-07-13T13:38:14;4.72;;;2.30;;
69327;SDS011;56472;52.114;5.492;2023-07-13T13:40:43;6.30;;;2.22;;
69327;SDS011;56472;52.114;5.492;2023-07-13T13:43:15;5.15;;;2.90;;
69327;SDS011;56472;52.114;5.492;2023-07-13T13:48:33;5.10;;;2.35;;
69327;SDS011;56472;52.114;5.492;2023-07-13T13:51:06;3.03;;;2.33;;
69327;SDS011;56472;52.114;5.492;2023-07-13T13:53:45;2.97;;;2.45;;
69327;SDS011;56472;52.114;5.492;2023-07-13T13:56:13;3.95;;;2.47;;
69327;SDS011;56472;52.114;5.492;2023-07-13T13:58:41;5.72;;;2.50;;
69327;SDS011;56472;52.114;5.492;2023-07-13T14:01:19;3.35;;;2.70;;
69327;SDS011;56472;52.114;5.492;2023-07-13T14:03:47;3.50;;;1.92;;
69327;SDS011;56472;52.114;5.492;2023-07-13T14:06:20;2.78;;;2.15;;
69327;SDS011;56472;52.114;5.492;2023-07-13T14:08:47;3.30;;;2.20;;
69327;SDS011;56472;52.114;5.492;2023-07-13T14:11:15;7.95;;;2.90;;
69327;SDS011;56472;52.114;5.492;2023-07-13T14:13:44;5.25;;;2.97;;
69327;SDS011;56472;52.114;5.492;2023-07-13T14:16:16;5.97;;;2.58;;
69327;SDS011;56472;52.114;5.492;2023-07-13T14:18:48;4.70;;;2.47;;
69327;SDS011;56472;52.114;5.492;2023-07-13T14:21:16;4.38;;;2.03;;
69327;SDS011;56472;52.114;5.492;2023-07-13T14:23:45;4.75;;;2.78;;
69327;SDS011;56472;52.114;5.492;2023-07-13T14:26:14;3.70;;;2.17;;
69327;SDS011;56472;52.114;5.492;2023-07-13T14:28:44;3.25;;;2.60;;
69327;SDS011;56472;52.114;5.492;2023-07-13T14:31:14;5.50;;;2.63;;
69327;SDS011;56472;52.114;5.492;2023-07-13T14:33:43;5.45;;;2.60;;
69327;SDS011;56472;52.114;5.492;2023-07-13T14:36:25;6.60;;;2.55;;
69327;SDS011;56472;52.114;5.492;2023-07-13T14:38:56;5.80;;;2.58;;
69327;SDS011;56472;52.114;5.492;2023-07-13T14:41:24;3.28;;;2.85;;
69327;SDS011;56472;52.114;5.492;2023-07-13T14:43:52;2.63;;;2.42;;
69327;SDS011;56472;52.114;5.492;2023-07-13T14:48:57;2.35;;;2.15;;
69327;SDS011;56472;52.114;5.492;2023-07-13T14:51:31;8.10;;;2.78;;
69327;SDS011;56472;52.114;5.492;2023-07-13T14:54:03;7.75;;;2.60;;
69327;SDS011;56472;52.114;5.492;2023-07-13T14:56:32;2.35;;;2.20;;
69327;SDS011;56472;52.114;5.492;2023-07-13T14:58:59;2.25;;;1.98;;
69327;SDS011;56472;52.114;5.492;2023-07-13T15:01:26;2.45;;;2.08;;
69327;SDS011;56472;52.114;5.492;2023-07-13T15:03:53;3.35;;;1.80;;
69327;SDS011;56472;52.114;5.492;2023-07-13T15:06:20;3.28;;;2.08;;
69327;SDS011;56472;52.114;5.492;2023-07-13T15:08:48;3.13;;;2.28;;
69327;SDS011;56472;52.114;5.492;2023-07-13T15:11:15;3.40;;;2.30;;
69327;SDS011;56472;52.114;5.492;2023-07-13T15:13:43;3.28;;;1.88;;
69327;SDS011;56472;52.114;5.492;2023-07-13T15:16:14;1.80;;;1.50;;
69327;SDS011;56472;52.114;5.492;2023-07-13T15:18:47;2.13;;;1.92;;
69327;SDS011;56472;52.114;5.492;2023-07-13T15:21:19;2.55;;;2.10;;
69327;SDS011;56472;52.114;5.492;2023-07-13T15:23:49;2.65;;;1.80;;
69327;SDS011;56472;52.114;5.492;2023-07-13T15:26:17;3.75;;;2.05;;
69327;SDS011;56472;52.114;5.492;2023-07-13T15:28:46;3.20;;;1.63;;
69327;SDS011;56472;52.114;5.492;2023-07-13T15:31:21;3.35;;;1.90;;
69327;SDS011;56472;52.114;5.492;2023-07-13T15:33:50;2.25;;;2.00;;
69327;SDS011;56472;52.114;5.492;2023-07-13T15:36:19;2.05;;;1.73;;
69327;SDS011;56472;52.114;5.492;2023-07-13T15:38:47;2.33;;;1.92;;
69327;SDS011;56472;52.114;5.492;2023-07-13T15:43:44;3.58;;;1.90;;